Time;durP1;ratioP1;P1;durP2;ratioP2;P2;SDS_P1;SDS_P2;PMS_P1;PMS_P2;Temp;Humidity;BMP_temperature;BMP_pressure;BME280_temperature;BME280_humidity;BME280_pressure;Samples;Min_cycle;Max_cycle;Signal;HPM_P1;HPM_P2
2023/06/23 00:00:22;;;;;;;7.65;5.85;;;;;;;25.34;60.67;100921.31;5032509;27;98811;-69
2023/06/23 00:02:49;;;;;;;6.88;6.05;;;;;;;25.23;60.09;100912.50;5024588;27;96864;-69
2023/06/23 00:05:15;;;;;;;13.65;5.22;;;;;;;25.23;59.64;100920.63;5025881;27;96849;-70
2023/06/23 00:07:43;;;;;;;8.23;6.07;;;;;;;25.39;59.93;100919.03;5028396;27;99122;-71
2023/06/23 00:10:11;;;;;;;7.28;5.93;;;;;;;25.25;59.43;100911.38;5024143;27;98845;-72
2023/06/23 00:12:41;;;;;;;6.53;5.80;;;;;;;25.18;60.52;100914.78;5025529;27;97099;-71
2023/06/23 00:15:08;;;;;;;8.90;5.53;;;;;;;24.97;61.37;100913.09;5023133;27;97420;-69
2023/06/23 00:17:36;;;;;;;6.82;5.30;;;;;;;25.11;60.60;100913.66;5027390;27;99723;-69
2023/06/23 00:20:03;;;;;;;10.13;5.90;;;;;;;25.06;61.02;100932.16;5022534;27;98749;-72
2023/06/23 00:22:31;;;;;;;7.78;5.28;;;;;;;25.01;61.56;100925.31;5038817;27;96816;-70
2023/06/23 00:24:58;;;;;;;7.88;6.10;;;;;;;25.03;61.09;100925.19;5036163;27;97116;-71
2023/06/23 00:27:25;;;;;;;8.40;6.05;;;;;;;25.15;60.59;100917.78;5024765;27;98945;-72
2023/06/23 00:29:51;;;;;;;8.02;5.47;;;;;;;25.09;60.19;100910.25;5028993;27;98983;-70
2023/06/23 00:32:18;;;;;;;9.23;5.60;;;;;;;25.19;59.99;100903.84;5027071;27;97004;-71
2023/06/23 00:34:44;;;;;;;8.00;5.50;;;;;;;25.01;60.57;100898.28;5031181;27;97156;-70
2023/06/23 00:37:10;;;;;;;10.57;5.28;;;;;;;24.95;60.95;100904.28;5037327;27;99091;-70
2023/06/23 00:39:37;;;;;;;10.98;5.40;;;;;;;24.99;60.79;100911.13;5030033;27;98925;-70
2023/06/23 00:42:06;;;;;;;6.28;4.85;;;;;;;25.12;60.03;100916.22;5027463;27;97010;-68
2023/06/23 00:44:34;;;;;;;6.00;5.18;;;;;;;25.21;59.97;100915.34;5022602;28;97256;-70
2023/06/23 00:47:01;;;;;;;5.55;4.88;;;;;;;25.14;60.07;100935.03;5023943;27;100890;-69
2023/06/23 00:49:27;;;;;;;7.00;4.82;;;;;;;24.91;60.55;100940.69;5023583;27;99077;-70
2023/06/23 00:51:54;;;;;;;5.60;5.00;;;;;;;24.96;61.48;100978.97;5023203;27;97722;-70
2023/06/23 00:54:23;;;;;;;6.43;5.28;;;;;;;24.74;62.92;101024.28;5024939;27;96959;-70
2023/06/23 00:56:50;;;;;;;7.13;5.60;;;;;;;24.31;64.43;101060.53;5024548;27;97818;-70
2023/06/23 00:59:18;;;;;;;7.32;5.80;;;;;;;24.14;65.39;101063.81;5028281;27;99938;-70
2023/06/23 01:01:45;;;;;;;6.15;5.25;;;;;;;24.54;64.02;101056.66;5025793;27;96851;-69
2023/06/23 01:04:11;;;;;;;9.07;5.68;;;;;;;24.91;63.07;101007.41;5031259;27;97517;-70
2023/06/23 01:06:46;;;;;;;8.20;5.82;;;;;;;24.92;63.56;100960.47;5036630;27;102548;-68
2023/06/23 01:09:20;;;;;;;6.30;5.70;;;;;;;24.98;64.25;100920.22;5028984;27;98978;-69
2023/06/23 01:11:55;;;;;;;10.00;6.63;;;;;;;24.98;63.67;100898.59;5042783;27;96962;-70
2023/06/23 01:14:29;;;;;;;8.80;6.65;;;;;;;24.92;64.09;100893.75;5031986;27;98565;-70
2023/06/23 01:17:01;;;;;;;9.55;6.18;;;;;;;24.79;64.23;100901.28;5031251;27;98708;-69
2023/06/23 01:19:47;;;;;;;10.98;6.60;;;;;;;24.85;63.50;100911.50;5029706;27;98895;-70
2023/06/23 01:22:22;;;;;;;9.13;5.93;;;;;;;24.79;64.45;100908.53;5026377;27;97308;-69
2023/06/23 01:25:02;;;;;;;12.73;5.93;;;;;;;24.97;63.22;100910.41;5031019;27;97096;-71
2023/06/23 01:27:46;;;;;;;10.25;6.05;;;;;;;24.82;64.49;100913.63;5028560;27;99030;-70
2023/06/23 01:30:16;;;;;;;10.30;6.65;;;;;;;25.23;62.98;100896.28;5033631;27;99217;-70
2023/06/23 01:32:46;;;;;;;10.02;6.60;;;;;;;25.16;62.87;100878.91;5026089;27;98813;-70
2023/06/23 01:35:19;;;;;;;9.07;6.35;;;;;;;25.07;63.48;100872.56;5027207;27;96970;-69
2023/06/23 01:37:50;;;;;;;9.38;6.50;;;;;;;24.72;64.74;100865.00;5030962;27;97672;-71
2023/06/23 01:40:21;;;;;;;9.23;6.45;;;;;;;24.89;64.66;100867.00;5027602;27;99064;-69
2023/06/23 01:42:52;;;;;;;11.82;6.43;;;;;;;25.02;64.26;100864.84;5026915;27;98503;-69
2023/06/23 01:45:23;;;;;;;9.77;5.72;;;;;;;25.15;63.74;100866.41;5025424;27;98367;-69
2023/06/23 01:47:50;;;;;;;9.75;5.47;;;;;;;25.00;63.39;100864.16;5029795;27;99087;-68
2023/06/23 01:50:19;;;;;;;9.35;5.95;;;;;;;24.96;63.35;100865.44;5026358;27;99047;-69
2023/06/23 01:52:47;;;;;;;7.32;5.57;;;;;;;25.10;63.66;100852.47;5023207;27;96943;-69
2023/06/23 01:55:15;;;;;;;7.30;5.35;;;;;;;24.90;64.25;100841.69;5026912;27;98267;-70
2023/06/23 01:57:43;;;;;;;9.60;5.38;;;;;;;24.95;63.95;100839.41;5025661;27;99359;-69
2023/06/23 02:00:13;;;;;;;7.25;5.30;;;;;;;24.97;63.78;100844.66;5026127;27;98857;-68
2023/06/23 02:02:43;;;;;;;7.70;4.88;;;;;;;24.84;63.36;100853.03;5026770;27;97290;-68
2023/06/23 02:05:11;;;;;;;8.30;5.47;;;;;;;24.87;63.68;100851.91;5023456;27;98826;-68
2023/06/23 02:07:40;;;;;;;5.65;5.05;;;;;;;24.78;63.93;100853.63;5023717;27;99697;-69
2023/06/23 02:10:07;;;;;;;6.35;5.15;;;;;;;24.68;64.26;100854.63;5027015;27;99191;-69
2023/06/23 02:12:35;;;;;;;6.97;5.75;;;;;;;24.69;64.36;100864.41;5026171;27;98172;-70
2023/06/23 02:15:04;;;;;;;9.55;5.65;;;;;;;24.64;64.26;100864.84;5026808;27;98468;-70
2023/06/23 02:17:31;;;;;;;7.43;6.10;;;;;;;24.53;64.77;100854.19;5023906;27;98931;-70
2023/06/23 02:20:00;;;;;;;8.80;6.10;;;;;;;24.63;65.23;100846.94;5024264;27;98469;-70
2023/06/23 02:22:28;;;;;;;5.95;5.30;;;;;;;24.57;65.79;100847.50;5025956;27;97649;-71
2023/06/23 02:24:55;;;;;;;6.88;5.53;;;;;;;24.41;66.29;100845.38;5024339;27;98041;-70
2023/06/23 02:27:22;;;;;;;8.90;5.38;;;;;;;24.50;65.72;100840.94;5026775;27;98970;-69
2023/06/23 02:29:50;;;;;;;7.78;5.88;;;;;;;24.71;65.24;100833.56;5024608;27;98613;-70
2023/06/23 02:32:17;;;;;;;9.48;5.53;;;;;;;24.57;65.79;100828.59;5025828;27;96871;-69
2023/06/23 02:34:45;;;;;;;7.32;5.13;;;;;;;24.59;65.46;100813.09;5024716;27;97028;-69
2023/06/23 02:37:16;;;;;;;6.97;4.80;;;;;;;24.69;65.41;100808.53;5027140;27;98991;-69
2023/06/23 02:39:48;;;;;;;7.82;5.70;;;;;;;24.87;64.22;100804.13;5024563;27;99945;-69
2023/06/23 02:42:19;;;;;;;5.53;4.95;;;;;;;24.80;64.10;100808.41;5023084;27;97191;-68
2023/06/23 02:44:52;;;;;;;11.23;5.43;;;;;;;24.86;64.09;100812.38;5025296;27;96849;-68
2023/06/23 02:47:20;;;;;;;7.82;5.60;;;;;;;24.57;64.47;100796.16;5023391;27;99437;-67
2023/06/23 02:49:50;;;;;;;6.00;5.40;;;;;;;24.56;65.22;100794.47;5023903;27;98912;-69
2023/06/23 02:52:20;;;;;;;7.85;4.68;;;;;;;24.62;65.08;100793.88;5023381;27;98743;-68
2023/06/23 02:54:50;;;;;;;6.90;4.85;;;;;;;24.38;66.18;100788.94;5025992;27;97053;-68
2023/06/23 02:57:19;;;;;;;7.97;5.50;;;;;;;24.34;65.39;100794.75;5024150;27;99028;-68
2023/06/23 02:59:47;;;;;;;10.55;8.23;;;;;;;24.41;65.85;100799.47;5025999;27;102120;-67
2023/06/23 03:02:16;;;;;;;6.25;5.38;;;;;;;24.40;65.23;100799.59;5026126;27;96981;-68
2023/06/23 03:04:45;;;;;;;6.35;5.43;;;;;;;24.29;65.86;100795.16;5024433;27;98429;-68
2023/06/23 03:07:11;;;;;;;6.38;5.35;;;;;;;24.48;64.86;100797.03;5022029;27;99020;-68
2023/06/23 03:09:39;;;;;;;7.20;5.25;;;;;;;24.45;64.69;100808.97;5025964;27;98845;-69
2023/06/23 03:12:06;;;;;;;6.88;5.38;;;;;;;24.46;64.86;100809.84;5024256;27;98600;-69
2023/06/23 03:14:33;;;;;;;8.43;5.40;;;;;;;24.33;65.27;100814.66;5023282;27;98482;-68
2023/06/23 03:17:03;;;;;;;7.93;5.90;;;;;;;24.28;64.93;100819.63;5023282;27;98950;-68
2023/06/23 03:19:34;;;;;;;8.80;5.53;;;;;;;24.29;64.98;100830.25;5023731;27;99067;-67
2023/06/23 03:22:11;;;;;;;6.85;5.05;;;;;;;24.12;65.88;100826.38;5026366;27;96944;-69
2023/06/23 03:24:40;;;;;;;6.00;5.40;;;;;;;24.05;66.70;100827.06;5028927;27;98710;-69
2023/06/23 03:27:08;;;;;;;6.38;5.20;;;;;;;24.12;66.86;100826.38;5025484;27;97995;-69
2023/06/23 03:29:39;;;;;;;9.00;6.05;;;;;;;23.98;67.64;100831.31;5032064;27;97537;-69
2023/06/23 03:32:08;;;;;;;7.78;6.00;;;;;;;24.23;66.85;100849.72;5028720;27;97058;-69
2023/06/23 03:34:41;;;;;;;7.15;5.75;;;;;;;24.08;67.84;100857.38;5025118;27;97219;-69
2023/06/23 03:37:09;;;;;;;8.00;5.45;;;;;;;24.34;66.93;100849.63;5027055;27;99049;-69
2023/06/23 03:39:41;;;;;;;9.13;5.85;;;;;;;24.32;66.91;100858.84;5030558;27;101278;-71
2023/06/23 03:42:08;;;;;;;8.10;5.72;;;;;;;24.05;67.26;100860.31;5026711;27;98827;-68
2023/06/23 03:44:38;;;;;;;10.38;5.93;;;;;;;24.40;66.40;100864.41;5031970;27;97339;-70
2023/06/23 03:47:13;;;;;;;9.52;5.53;;;;;;;24.54;66.41;100880.22;5026077;27;99149;-69
2023/06/23 03:49:43;;;;;;;11.00;6.07;;;;;;;24.57;66.35;100883.47;5026501;27;97792;-70
2023/06/23 03:52:11;;;;;;;8.43;5.70;;;;;;;24.59;66.45;100886.03;5025942;27;98480;-70
2023/06/23 03:54:41;;;;;;;6.35;5.53;;;;;;;24.30;67.88;100893.22;5030997;27;96934;-69
2023/06/23 03:57:13;;;;;;;7.38;5.78;;;;;;;24.23;68.22;100890.22;5026429;27;98959;-70
2023/06/23 03:59:41;;;;;;;6.40;5.10;;;;;;;24.57;66.99;100896.97;5034139;27;99020;-69
2023/06/23 04:02:09;;;;;;;9.65;6.20;;;;;;;24.56;67.55;100902.50;5035347;27;97718;-69
2023/06/23 04:04:38;;;;;;;8.98;5.28;;;;;;;24.80;66.42;100918.34;5028114;27;98493;-69
2023/06/23 04:07:06;;;;;;;6.18;5.47;;;;;;;24.99;65.03;100912.97;5027786;27;99724;-69
2023/06/23 04:09:34;;;;;;;8.70;5.50;;;;;;;25.14;65.11;100924.22;5029666;27;99621;-70
2023/06/23 04:12:05;;;;;;;6.70;5.18;;;;;;;25.12;64.50;100928.91;5025502;27;98036;-70
2023/06/23 04:14:33;;;;;;;8.95;6.40;;;;;;;25.19;64.46;100943.53;5029019;27;97017;-70
2023/06/23 04:17:00;;;;;;;8.55;5.95;;;;;;;25.04;64.85;100935.00;5026170;27;99326;-70
2023/06/23 04:19:29;;;;;;;7.55;5.55;;;;;;;25.32;63.89;100944.09;5034394;27;98954;-70
2023/06/23 04:21:56;;;;;;;7.75;6.10;;;;;;;25.28;63.79;100948.06;5022155;27;97758;-70
2023/06/23 04:24:24;;;;;;;8.00;5.75;;;;;;;25.35;63.93;100950.06;5024393;27;98081;-70
2023/06/23 04:26:53;;;;;;;10.68;6.78;;;;;;;25.27;64.25;100957.22;5021833;27;99353;-71
2023/06/23 04:29:24;;;;;;;7.07;5.57;;;;;;;25.38;63.80;100957.03;5024912;27;98960;-70
2023/06/23 04:31:53;;;;;;;10.48;6.38;;;;;;;25.48;63.43;100955.16;5030084;27;96950;-69
2023/06/23 04:34:20;;;;;;;8.77;5.75;;;;;;;25.30;64.21;100956.91;5028608;27;96988;-69
2023/06/23 04:36:50;;;;;;;6.97;5.53;;;;;;;25.34;63.61;100955.59;5028151;27;99219;-70
2023/06/23 04:39:25;;;;;;;9.65;5.90;;;;;;;25.42;63.67;100961.16;5025986;27;98896;-70
2023/06/23 04:41:53;;;;;;;12.73;7.18;;;;;;;25.24;63.77;100960.19;5028781;27;96961;-69
2023/06/23 04:44:25;;;;;;;9.02;6.78;;;;;;;25.14;64.05;100951.25;5026741;27;97045;-70
2023/06/23 04:46:53;;;;;;;10.63;7.47;;;;;;;25.16;64.21;100952.78;5022097;27;99188;-69
2023/06/23 04:49:23;;;;;;;9.23;6.90;;;;;;;25.10;64.83;100966.88;5021386;27;97515;-69
2023/06/23 04:51:53;;;;;;;10.82;7.70;;;;;;;25.24;64.75;100954.78;5023591;27;96872;-70
2023/06/23 04:54:23;;;;;;;13.50;8.70;;;;;;;25.05;65.11;100954.78;5024461;27;99309;-69
2023/06/23 04:56:59;;;;;;;9.05;7.15;;;;;;;25.10;64.15;100956.06;5026544;27;99217;-69
2023/06/23 04:59:31;;;;;;;9.90;6.45;;;;;;;25.10;64.77;100964.19;5027166;27;98787;-69
2023/06/23 05:01:59;;;;;;;8.73;7.13;;;;;;;24.75;65.65;100966.53;5027049;27;98573;-68
2023/06/23 05:04:27;;;;;;;11.38;7.45;;;;;;;25.01;64.77;100968.56;5028832;27;96938;-69
2023/06/23 05:06:55;;;;;;;12.30;7.13;;;;;;;24.94;64.93;100967.44;5032791;27;100928;-70
2023/06/23 05:09:23;;;;;;;13.60;10.70;;;;;;;25.15;64.09;100969.16;5026815;27;98931;-70
2023/06/23 05:11:52;;;;;;;7.78;6.47;;;;;;;25.09;64.43;100977.81;5024284;27;98031;-70
2023/06/23 05:14:20;;;;;;;9.55;7.40;;;;;;;25.11;63.97;100978.56;5028399;27;96912;-70
2023/06/23 05:16:49;;;;;;;8.25;6.97;;;;;;;25.01;64.21;100973.97;5024804;27;99166;-69
2023/06/23 05:19:17;;;;;;;8.18;7.13;;;;;;;24.98;64.76;100968.88;5028383;27;97583;-70
2023/06/23 05:21:45;;;;;;;8.80;7.10;;;;;;;24.95;65.07;100968.28;5027912;27;96975;-70
2023/06/23 05:24:14;;;;;;;11.73;7.55;;;;;;;24.98;64.72;100968.03;5028388;27;96966;-70
2023/06/23 05:26:41;;;;;;;7.82;7.00;;;;;;;24.88;64.90;100969.81;5023952;27;99179;-69
2023/06/23 05:29:10;;;;;;;6.78;6.10;;;;;;;25.12;64.33;100989.22;5024853;27;99298;-69
2023/06/23 05:31:40;;;;;;;8.55;6.78;;;;;;;24.89;65.37;100983.22;5025909;27;97562;-70
2023/06/23 05:34:10;;;;;;;7.82;6.65;;;;;;;24.89;64.66;100990.44;5021731;27;97170;-71
2023/06/23 05:36:38;;;;;;;7.25;6.47;;;;;;;25.07;64.09;100990.66;5020722;27;99207;-70
2023/06/23 05:39:06;;;;;;;8.68;6.65;;;;;;;25.13;64.21;100993.66;5023769;27;99219;-71
2023/06/23 05:41:33;;;;;;;8.48;6.45;;;;;;;25.15;64.13;100991.63;5022485;27;98436;-71
2023/06/23 05:43:59;;;;;;;7.70;6.22;;;;;;;25.17;64.08;100999.59;5023564;27;97208;-71
2023/06/23 05:46:28;;;;;;;7.10;6.35;;;;;;;25.27;63.91;100995.06;5020148;27;99212;-72
2023/06/23 05:49:00;;;;;;;8.68;6.57;;;;;;;24.98;64.30;100997.75;5021480;27;98916;-71
2023/06/23 05:51:31;;;;;;;8.30;7.05;;;;;;;25.02;64.53;100991.91;5023218;27;97266;-71
2023/06/23 05:54:01;;;;;;;7.63;6.68;;;;;;;25.13;64.09;100998.19;5024622;27;98697;-70
2023/06/23 05:56:33;;;;;;;10.90;6.45;;;;;;;24.97;65.50;100994.19;5024448;27;98999;-70
2023/06/23 05:59:06;;;;;;;9.80;7.00;;;;;;;25.16;64.96;100992.50;5024053;27;99161;-70
2023/06/23 06:01:39;;;;;;;8.10;6.93;;;;;;;25.12;64.80;100991.09;5022662;27;97157;-70
2023/06/23 06:04:08;;;;;;;10.65;7.05;;;;;;;25.07;64.52;100985.25;5021573;27;99624;-70
2023/06/23 06:06:38;;;;;;;8.10;7.30;;;;;;;25.22;64.17;100997.31;5024743;27;97881;-70
2023/06/23 06:09:06;;;;;;;8.23;7.03;;;;;;;25.33;63.90;100991.78;5024113;27;102942;-69
2023/06/23 06:11:34;;;;;;;8.00;6.70;;;;;;;25.05;64.77;100990.78;5033639;27;97576;-69
2023/06/23 06:14:03;;;;;;;9.50;7.00;;;;;;;25.18;64.09;101001.31;5033249;27;96796;-70
2023/06/23 06:16:31;;;;;;;11.02;7.85;;;;;;;25.02;65.18;101001.88;5026664;27;98945;-71
2023/06/23 06:19:00;;;;;;;7.78;7.00;;;;;;;25.05;65.05;101003.44;5029234;27;98900;-70
2023/06/23 06:21:27;;;;;;;12.75;7.13;;;;;;;25.18;64.87;100999.47;5028539;27;98082;-70
2023/06/23 06:23:57;;;;;;;12.30;10.50;;;;;;;25.07;64.79;100988.81;5023223;27;97282;-70
2023/06/23 06:26:25;;;;;;;10.98;8.23;;;;;;;25.06;65.20;100989.81;5019619;27;99208;-69
2023/06/23 06:28:53;;;;;;;9.40;8.18;;;;;;;25.21;65.36;100984.81;5026562;27;97728;-73
2023/06/23 06:31:21;;;;;;;10.93;8.30;;;;;;;25.48;64.21;100976.81;5023650;27;97141;-73
2023/06/23 06:33:51;;;;;;;9.65;7.82;;;;;;;25.31;64.32;100986.53;5030686;27;99307;-73
2023/06/23 06:36:20;;;;;;;10.27;8.02;;;;;;;25.36;63.95;100996.91;5031120;27;100519;-73
2023/06/23 06:38:49;;;;;;;13.88;8.30;;;;;;;25.57;63.47;100992.22;5035233;27;98849;-74
2023/06/23 06:41:17;;;;;;;9.02;8.10;;;;;;;25.52;63.07;100999.88;5029093;27;96905;-72
2023/06/23 06:43:44;;;;;;;15.77;9.13;;;;;;;25.41;62.92;101008.13;5035780;27;96820;-73
2023/06/23 06:46:12;;;;;;;10.20;7.90;;;;;;;25.45;63.10;101011.44;5030312;27;98909;-73
2023/06/23 06:48:40;;;;;;;13.07;8.93;;;;;;;25.24;63.45;101009.72;5035085;27;98998;-73
2023/06/23 06:51:08;;;;;;;11.07;8.73;;;;;;;25.15;64.50;100996.19;5034118;27;97173;-73
2023/06/23 06:53:36;;;;;;;10.73;8.82;;;;;;;25.43;63.92;100995.34;5036158;27;96786;-72
2023/06/23 06:56:02;;;;;;;12.32;8.80;;;;;;;25.48;64.40;100989.47;5032706;27;99121;-73
2023/06/23 06:58:30;;;;;;;11.32;9.35;;;;;;;25.54;63.39;100994.31;5033449;27;99045;-72
2023/06/23 07:00:59;;;;;;;12.45;7.65;;;;;;;25.68;63.09;100991.19;5037483;27;96759;-73
2023/06/23 07:03:25;;;;;;;11.50;8.52;;;;;;;25.73;62.73;100991.63;5032566;27;97067;-72
2023/06/23 07:05:52;;;;;;;9.55;7.72;;;;;;;25.94;62.56;100992.25;5035006;27;99199;-72
2023/06/23 07:08:18;;;;;;;8.43;7.05;;;;;;;26.24;61.87;101002.03;5033049;27;98906;-72
2023/06/23 07:10:44;;;;;;;13.18;8.13;;;;;;;26.25;61.65;101005.59;5034354;27;97070;-73
2023/06/23 07:13:11;;;;;;;9.60;7.82;;;;;;;26.07;61.62;101010.88;5035176;27;96772;-72
2023/06/23 07:15:38;;;;;;;10.43;7.85;;;;;;;26.24;61.46;101012.88;5035272;27;99057;-72
2023/06/23 07:18:05;;;;;;;12.98;8.82;;;;;;;26.11;61.08;101012.31;5032934;27;98790;-72
2023/06/23 07:20:31;;;;;;;11.35;8.32;;;;;;;26.12;60.77;101022.16;5031192;27;96718;-73
2023/06/23 07:22:57;;;;;;;12.25;9.57;;;;;;;25.99;61.83;101013.50;5033117;27;96801;-73
2023/06/23 07:25:24;;;;;;;9.02;7.95;;;;;;;25.89;61.83;101016.22;5030551;27;98908;-72
2023/06/23 07:27:50;;;;;;;12.52;9.02;;;;;;;25.70;62.15;101022.53;5032192;27;98969;-73
2023/06/23 07:30:17;;;;;;;10.80;8.38;;;;;;;25.75;62.01;101017.53;5033407;27;96880;-73
2023/06/23 07:32:46;;;;;;;11.35;9.07;;;;;;;25.68;62.60;101024.53;5035845;27;96974;-74
2023/06/23 07:35:12;;;;;;;12.77;8.27;;;;;;;25.39;63.52;101023.69;5034256;27;99447;-74
2023/06/23 07:37:39;;;;;;;11.63;7.72;;;;;;;25.39;63.12;101032.66;5038478;27;98002;-74
2023/06/23 07:40:06;;;;;;;9.77;8.77;;;;;;;25.57;63.25;101035.50;5040910;27;96908;-74
2023/06/23 07:42:32;;;;;;;10.20;8.90;;;;;;;25.56;62.97;101033.75;5030457;27;96850;-73
2023/06/23 07:44:59;;;;;;;10.65;7.97;;;;;;;25.61;63.03;101033.34;5034055;27;98899;-73
2023/06/23 07:47:25;;;;;;;10.40;8.35;;;;;;;25.44;63.40;101032.22;5030705;27;98832;-72
2023/06/23 07:49:53;;;;;;;10.35;8.23;;;;;;;25.52;63.54;101026.09;5029614;27;97204;-73
2023/06/23 07:52:19;;;;;;;11.23;8.00;;;;;;;25.35;63.69;101035.75;5031532;27;96837;-74
2023/06/23 07:54:45;;;;;;;10.35;8.43;;;;;;;25.36;64.50;101042.88;5038669;27;102867;-74
2023/06/23 07:57:13;;;;;;;9.93;8.50;;;;;;;25.31;64.24;101043.31;5033427;27;99129;-73
2023/06/23 07:59:39;;;;;;;11.13;8.68;;;;;;;25.37;63.79;101044.59;5035358;27;97220;-73
2023/06/23 08:02:06;;;;;;;10.50;8.50;;;;;;;25.37;63.49;101041.91;5028919;27;96838;-73
2023/06/23 08:04:33;;;;;;;8.93;7.30;;;;;;;25.30;64.51;101044.31;5029299;27;97757;-72
2023/06/23 08:07:00;;;;;;;10.10;8.60;;;;;;;25.29;64.32;101045.31;5026383;28;98891;-72
2023/06/23 08:09:27;;;;;;;13.13;9.02;;;;;;;25.41;64.93;101049.56;5029789;27;97346;-73
2023/06/23 08:11:53;;;;;;;11.60;8.35;;;;;;;25.53;64.28;101046.75;5033059;27;97484;-74
2023/06/23 08:14:19;;;;;;;12.20;8.52;;;;;;;25.64;63.75;101047.47;5027702;27;96886;-73
2023/06/23 08:16:47;;;;;;;15.05;8.30;;;;;;;25.64;64.13;101046.63;5029527;27;101603;-72
2023/06/23 08:19:13;;;;;;;13.15;9.05;;;;;;;25.65;64.36;101049.19;5032178;27;97140;-73
2023/06/23 08:21:39;;;;;;;11.55;9.20;;;;;;;25.57;64.43;101051.75;5035234;27;97872;-73
2023/06/23 08:24:07;;;;;;;10.60;8.18;;;;;;;25.80;63.29;101057.69;5030674;27;99046;-74
2023/06/23 08:26:33;;;;;;;9.65;7.60;;;;;;;25.84;62.75;101064.53;5028094;27;99694;-73
2023/06/23 08:29:00;;;;;;;9.50;7.70;;;;;;;25.77;62.63;101064.25;5023997;27;97075;-74
2023/06/23 08:31:26;;;;;;;8.85;7.88;;;;;;;25.59;62.96;101060.59;5027135;27;96821;-76
2023/06/23 08:33:52;;;;;;;8.60;7.72;;;;;;;25.55;63.14;101066.38;5027345;27;99387;-74
2023/06/23 08:36:19;;;;;;;8.73;7.40;;;;;;;25.49;63.30;101059.69;5026037;27;99078;-74
2023/06/23 08:38:45;;;;;;;8.43;7.47;;;;;;;25.59;63.00;101071.41;5033724;27;96890;-72
2023/06/23 08:41:13;;;;;;;10.82;7.88;;;;;;;25.75;62.50;101066.25;5032057;27;97329;-73
2023/06/23 08:43:44;;;;;;;9.77;7.25;;;;;;;25.67;62.35;101063.41;5028173;27;98922;-75
2023/06/23 08:46:14;;;;;;;10.77;7.78;;;;;;;25.65;62.61;101067.28;5025264;27;98117;-72
2023/06/23 08:48:43;;;;;;;8.48;7.60;;;;;;;25.61;62.72;101074.81;5030901;27;97855;-73
2023/06/23 08:51:09;;;;;;;8.63;7.22;;;;;;;25.46;63.49;101075.38;5030012;27;97650;-74
2023/06/23 08:53:36;;;;;;;8.48;7.57;;;;;;;25.46;63.88;101092.44;5027277;27;98948;-73
2023/06/23 08:56:03;;;;;;;8.02;7.22;;;;;;;25.40;63.95;101091.13;5034799;27;98858;-74
2023/06/23 08:58:31;;;;;;;11.70;7.68;;;;;;;25.48;63.08;101095.00;5031419;27;97411;-74
2023/06/23 09:00:57;;;;;;;9.35;8.35;;;;;;;25.30;63.75;101087.59;5033470;27;96882;-74
2023/06/23 09:03:24;;;;;;;10.00;8.48;;;;;;;25.44;63.68;101104.41;5027324;27;99048;-73
2023/06/23 09:05:50;;;;;;;10.40;8.90;;;;;;;25.36;64.45;101113.22;5034126;27;99082;-74
2023/06/23 09:08:17;;;;;;;11.98;9.50;;;;;;;25.27;63.90;101108.66;5030323;27;96862;-74
2023/06/23 09:10:44;;;;;;;10.88;9.60;;;;;;;25.27;63.85;101104.06;5036425;27;97098;-75
2023/06/23 09:13:24;;;;;;;10.90;9.80;;;;;;;25.08;65.02;101101.34;5031432;27;99212;-74
2023/06/23 09:15:52;;;;;;;11.50;9.63;;;;;;;25.25;64.51;101105.25;5030071;27;98994;-72
2023/06/23 09:18:19;;;;;;;11.63;10.38;;;;;;;25.16;64.46;101103.34;5029962;27;96834;-74
2023/06/23 09:20:47;;;;;;;14.43;10.88;;;;;;;25.27;64.90;101097.84;5032015;27;97367;-74
2023/06/23 09:23:15;;;;;;;13.20;11.80;;;;;;;25.55;64.19;101102.41;5029121;27;98940;-74
2023/06/23 09:25:44;;;;;;;12.90;11.60;;;;;;;25.61;63.92;101106.41;5032999;27;99736;-73
2023/06/23 09:28:22;;;;;;;12.32;11.15;;;;;;;25.58;63.52;101117.53;5032790;27;96724;-74
2023/06/23 09:30:48;;;;;;;12.18;10.93;;;;;;;25.50;63.23;101109.25;5032801;27;97282;-73
2023/06/23 09:33:17;;;;;;;12.52;11.32;;;;;;;25.30;63.46;101119.19;5031858;27;98882;-74
2023/06/23 09:35:47;;;;;;;13.32;11.55;;;;;;;25.25;63.03;101126.88;5027719;27;98839;-72
2023/06/23 09:38:13;;;;;;;12.60;11.38;;;;;;;25.04;63.54;101124.25;5033827;27;96768;-73
2023/06/23 09:40:40;;;;;;;13.75;12.30;;;;;;;24.93;64.12;101130.63;5030736;27;97048;-73
2023/06/23 09:43:06;;;;;;;15.15;13.73;;;;;;;24.91;64.44;101132.63;5039726;27;97659;-73
2023/06/23 09:45:33;;;;;;;16.58;14.85;;;;;;;24.64;65.02;101135.03;5031066;27;98267;-73
2023/06/23 09:48:00;;;;;;;17.58;15.32;;;;;;;24.65;65.62;101138.59;5035210;27;97201;-72
2023/06/23 09:50:28;;;;;;;17.88;16.02;;;;;;;24.56;65.54;101140.25;5031375;27;97289;-75
2023/06/23 09:53:03;;;;;;;18.48;16.48;;;;;;;24.67;65.59;101145.59;5033161;27;97926;-73
2023/06/23 09:55:30;;;;;;;21.20;18.33;;;;;;;24.65;65.38;101147.56;5030161;27;103235;-73
2023/06/23 09:57:56;;;;;;;21.15;17.27;;;;;;;24.76;65.86;101144.75;5030722;27;97108;-73
2023/06/23 10:00:30;;;;;;;22.17;16.52;;;;;;;25.00;65.13;101145.31;5033303;27;97435;-74
2023/06/23 10:02:58;;;;;;;19.58;16.75;;;;;;;25.15;64.57;101139.50;5031670;27;99336;-73
2023/06/23 10:05:24;;;;;;;20.33;17.40;;;;;;;25.01;65.65;101147.00;5031436;27;99809;-74
2023/06/23 10:08:05;;;;;;;20.20;16.92;;;;;;;24.99;64.93;101148.16;5034925;27;97184;-73
2023/06/23 10:10:32;;;;;;;21.65;16.83;;;;;;;25.09;64.65;101158.97;5028350;27;96866;-73
2023/06/23 10:12:58;;;;;;;18.20;15.38;;;;;;;25.18;64.62;101150.91;5030960;27;100583;-73
2023/06/23 10:15:24;;;;;;;19.13;16.15;;;;;;;24.91;65.10;101154.25;5027831;27;99603;-75
2023/06/23 10:17:51;;;;;;;18.50;16.60;;;;;;;25.06;64.70;101159.28;5034401;27;97670;-73
2023/06/23 10:20:17;;;;;;;19.77;17.45;;;;;;;25.04;65.15;101151.28;5039024;27;97324;-74
2023/06/23 10:22:45;;;;;;;19.88;17.73;;;;;;;25.19;65.14;101149.06;5036745;27;99150;-72
2023/06/23 10:25:13;;;;;;;20.27;16.20;;;;;;;25.15;65.31;101142.19;5035727;27;97165;-72
2023/06/23 10:27:42;;;;;;;18.80;15.93;;;;;;;25.16;65.14;101149.31;5034040;27;96805;-73
2023/06/23 10:30:11;;;;;;;17.45;15.65;;;;;;;25.39;64.14;101153.53;5034946;27;97419;-74
2023/06/23 10:32:41;;;;;;;19.45;15.70;;;;;;;25.47;64.75;101152.81;5033247;27;99590;-75
2023/06/23 10:35:10;;;;;;;17.88;15.45;;;;;;;25.61;63.62;101158.69;5038178;27;99231;-73
2023/06/23 10:37:38;;;;;;;16.38;14.68;;;;;;;25.61;63.79;101155.13;5025864;27;96895;-73
2023/06/23 10:40:06;;;;;;;15.82;14.20;;;;;;;25.55;63.41;101158.38;5027718;27;96887;-75
2023/06/23 10:42:35;;;;;;;15.45;13.88;;;;;;;25.56;63.09;101169.06;5027937;27;99262;-73
2023/06/23 10:45:03;;;;;;;19.40;14.65;;;;;;;25.67;63.05;101171.66;5032434;27;98318;-73
2023/06/23 10:47:29;;;;;;;14.13;12.73;;;;;;;25.32;64.60;101180.28;5032989;27;97653;-73
2023/06/23 10:49:56;;;;;;;17.33;15.52;;;;;;;25.45;64.72;101177.31;5029074;27;97896;-73
2023/06/23 10:52:23;;;;;;;14.52;13.05;;;;;;;25.33;65.30;101184.69;5031856;27;99442;-73
2023/06/23 10:54:50;;;;;;;12.85;11.55;;;;;;;25.18;64.57;101187.91;5026176;27;99068;-72
2023/06/23 10:57:16;;;;;;;13.10;11.80;;;;;;;25.30;64.15;101200.31;5031021;27;96889;-72
2023/06/23 10:59:57;;;;;;;13.38;12.05;;;;;;;25.26;64.42;101201.59;5033055;27;97331;-73
2023/06/23 11:02:25;;;;;;;13.68;12.27;;;;;;;25.21;64.84;101209.25;5032996;27;99616;-74
2023/06/23 11:04:54;;;;;;;16.17;13.15;;;;;;;25.23;65.69;101204.56;5037866;27;97611;-73
2023/06/23 11:07:20;;;;;;;15.82;12.82;;;;;;;25.10;66.00;101206.66;5031151;27;96806;-73
2023/06/23 11:09:52;;;;;;;17.95;12.32;;;;;;;25.11;65.74;101205.69;5037378;27;99572;-74
2023/06/23 11:12:29;;;;;;;15.95;13.80;;;;;;;25.23;65.71;101209.97;5027596;27;98940;-73
2023/06/23 11:15:10;;;;;;;14.68;11.80;;;;;;;25.18;65.78;101214.94;5032532;27;101873;-72
2023/06/23 11:17:40;;;;;;;13.98;11.52;;;;;;;24.99;66.51;101227.41;5025650;27;97250;-71
2023/06/23 11:20:10;;;;;;;12.52;11.25;;;;;;;25.06;65.77;101222.31;5033649;27;96920;-73
2023/06/23 11:22:39;;;;;;;15.27;11.10;;;;;;;25.01;65.85;101229.97;5033860;27;97916;-72
2023/06/23 11:25:07;;;;;;;14.35;11.18;;;;;;;24.94;66.37;101229.63;5025627;27;98834;-73